X  Chiuso Dati meteorologici dell'aviazione (METAR)        EDDE Erfurt
Temperatura
13°C Temperatura
6°C Punto di rugiada
63% Umidità



Vento
11 KM/O
7 MPH
3 M/S
6 KTS



310°
NO
Condizioni attuali

Mostly Cloudy Prevalentemente nuvoloso
Pressione 1029 (hPa) - 30.39 (inHg)
Visibilità 30 (miglio) - 48 (km)
Aeroporto
Codice-Aeroporto EDDE

Posizione: Erfurt
Distanza: 25 (km)

Metar:
METAR EDDE 211720Z 31006KT 9999 BKN045 13/06 Q1029 NOSIG

Ore: 21.09.2021 19:20 CEST